Terminal Aerodrome Forecast
Issued by NWS Newport/Morehead City, NC

Home | Current Version | Previous Version | Graphics & Text | Print | Product List | Glossary On
Versions: 1 2 3 4 5 6 7 8 9 10 11 12 13 14 15 16 17
559
FTUS42 KMHX 151602 AAA
TAFEWN
TAF AMD
KEWN 151602Z 1516/1612 04008KT P6SM SCT020 BKN100
      TEMPO 1517/1519 BKN020
     FM151900 03007KT P6SM SCT020 BKN040
     FM160000 03004KT P6SM SCT020 BKN040=

USA.gov is the U.S. government's official web portal to all federal, state and local government web resources and services.